Time;durP1;ratioP1;P1;durP2;ratioP2;P2;SDS_P1;SDS_P2;PMS_P1;PMS_P2;Temp;Humidity;BMP_temperature;BMP_pressure;BME280_temperature;BME280_humidity;BME280_pressure;Samples;Min_cycle;Max_cycle;Signal;HPM_P1;HPM_P2
2023/09/26 00:00:21;;;;;;;8.77;4.07;;;;;;;22.88;64.56;101463.16;5094831;28;20071;-51
2023/09/26 00:02:50;;;;;;;7.43;3.80;;;;;;;22.85;64.41;101469.56;5092584;28;20056;-48
2023/09/26 00:05:19;;;;;;;7.85;4.18;;;;;;;22.79;64.36;101455.03;5096127;28;20040;-48
2023/09/26 00:07:48;;;;;;;8.30;4.00;;;;;;;22.76;64.43;101458.59;5093520;28;20063;-46
2023/09/26 00:10:16;;;;;;;7.72;3.80;;;;;;;22.77;64.55;101453.78;5077742;28;20056;-49
2023/09/26 00:12:44;;;;;;;7.68;4.18;;;;;;;22.74;64.71;101457.34;5092810;28;20050;-46
2023/09/26 00:15:11;;;;;;;7.57;3.85;;;;;;;22.69;64.89;101461.28;5076042;28;20398;-45
2023/09/26 00:17:39;;;;;;;7.28;4.35;;;;;;;22.65;65.20;101451.19;5094476;28;20048;-49
2023/09/26 00:20:12;;;;;;;9.85;4.32;;;;;;;22.63;65.10;101453.56;5090742;28;20673;-48
2023/09/26 00:22:39;;;;;;;7.82;3.97;;;;;;;22.60;65.17;101455.13;5095329;28;20446;-49
2023/09/26 00:25:07;;;;;;;8.77;4.35;;;;;;;22.60;64.98;101449.50;5109213;28;20055;-44
2023/09/26 00:27:34;;;;;;;9.07;4.07;;;;;;;22.58;65.29;101446.25;5077678;28;20055;-47
2023/09/26 00:30:02;;;;;;;8.25;4.13;;;;;;;22.57;65.15;101453.06;5095540;28;20507;-49
2023/09/26 00:32:30;;;;;;;6.15;3.88;;;;;;;22.56;65.05;101450.66;5094684;28;20052;-47
2023/09/26 00:34:57;;;;;;;9.85;4.20;;;;;;;22.56;64.92;101445.81;5095473;28;20044;-44
2023/09/26 00:37:25;;;;;;;8.98;3.83;;;;;;;22.54;65.11;101456.66;5094323;28;20607;-47
2023/09/26 00:39:53;;;;;;;8.13;3.97;;;;;;;22.55;64.91;101454.63;5091650;28;20040;-47
2023/09/26 00:42:21;;;;;;;9.43;4.28;;;;;;;22.53;64.96;101456.97;5088004;28;20410;-47
2023/09/26 00:44:49;;;;;;;8.18;3.90;;;;;;;22.53;64.74;101451.34;5077254;28;20036;-45
2023/09/26 00:47:16;;;;;;;7.65;3.92;;;;;;;22.53;64.73;101445.72;5072870;28;20054;-43
2023/09/26 00:49:44;;;;;;;7.82;3.45;;;;;;;22.52;64.84;101444.13;5072329;28;20044;-49
2023/09/26 00:52:11;;;;;;;8.98;4.10;;;;;;;22.52;64.61;101438.50;5075049;28;20325;-50
2023/09/26 00:54:39;;;;;;;9.05;4.00;;;;;;;22.52;64.83;101444.13;5060235;28;20040;-49
2023/09/26 00:57:06;;;;;;;10.40;3.85;;;;;;;22.53;64.82;101454.16;5094518;28;20063;-46
2023/09/26 00:59:34;;;;;;;7.28;3.85;;;;;;;22.53;64.78;101454.97;5095045;28;20047;-45
2023/09/26 01:02:01;;;;;;;8.85;3.78;;;;;;;22.51;64.74;101450.94;5093960;28;20045;-47
2023/09/26 01:04:29;;;;;;;9.30;4.05;;;;;;;22.48;64.56;101460.09;5071773;28;20067;-49
2023/09/26 01:06:57;;;;;;;6.93;3.63;;;;;;;22.53;64.59;101449.34;5086283;28;20040;-49
2023/09/26 01:09:24;;;;;;;8.00;3.80;;;;;;;22.56;64.07;101451.44;5075774;28;20055;-45
2023/09/26 01:11:51;;;;;;;8.07;3.63;;;;;;;22.60;64.00;101443.06;5095657;28;20044;-47
2023/09/26 01:14:19;;;;;;;8.70;3.55;;;;;;;22.60;63.83;101443.06;5094361;28;20490;-47
2023/09/26 01:16:46;;;;;;;7.28;3.47;;;;;;;22.59;63.50;101436.66;5094581;28;20130;-49
2023/09/26 01:19:14;;;;;;;7.60;3.63;;;;;;;22.62;63.86;101435.06;5078828;28;20070;-51
2023/09/26 01:21:41;;;;;;;8.63;3.58;;;;;;;22.63;63.78;101439.53;5103826;28;20048;-47
2023/09/26 01:24:09;;;;;;;8.73;3.80;;;;;;;22.62;63.57;101441.50;5059701;28;20047;-49
2023/09/26 01:26:37;;;;;;;8.10;3.75;;;;;;;22.62;63.54;101443.50;5059276;28;20052;-51
2023/09/26 01:29:06;;;;;;;10.80;3.95;;;;;;;22.62;63.07;101441.50;5087585;28;20048;-45
2023/09/26 01:31:34;;;;;;;7.00;3.47;;;;;;;22.60;63.27;101435.47;5082893;28;20052;-46
2023/09/26 01:34:03;;;;;;;7.68;3.95;;;;;;;22.58;63.39;101426.59;5103317;28;20051;-47
2023/09/26 01:36:31;;;;;;;6.85;3.70;;;;;;;22.55;63.35;101424.56;5089902;28;20056;-45
2023/09/26 01:38:59;;;;;;;6.70;3.58;;;;;;;22.53;63.47;101417.66;5093562;28;20058;-46
2023/09/26 01:41:27;;;;;;;8.80;3.83;;;;;;;22.51;63.08;101411.63;5076322;28;20055;-47
2023/09/26 01:43:54;;;;;;;9.63;3.78;;;;;;;22.49;63.09;101402.75;5057503;28;20048;-49
2023/09/26 01:46:22;;;;;;;7.35;3.35;;;;;;;22.48;63.13;101404.75;5079994;28;20059;-46
2023/09/26 01:48:50;;;;;;;8.70;3.88;;;;;;;22.48;63.03;101406.75;5089055;28;20052;-48
2023/09/26 01:51:18;;;;;;;6.68;3.63;;;;;;;22.51;63.00;101412.41;5075729;28;20055;-49
2023/09/26 01:53:45;;;;;;;6.85;3.30;;;;;;;22.50;62.81;101416.41;5093924;28;20044;-44
2023/09/26 01:56:12;;;;;;;6.75;3.90;;;;;;;22.47;62.81;101408.75;5093825;28;20391;-45
2023/09/26 01:58:41;;;;;;;7.20;3.45;;;;;;;22.46;62.83;101418.34;5068943;28;20066;-46
2023/09/26 02:01:08;;;;;;;6.38;3.45;;;;;;;22.44;62.62;101415.09;5074410;28;20043;-44
2023/09/26 02:03:36;;;;;;;7.60;3.42;;;;;;;22.42;62.66;101423.09;5092246;28;20044;-44
2023/09/26 02:06:04;;;;;;;7.65;3.30;;;;;;;22.40;62.65;101416.25;5093528;28;20056;-46
2023/09/26 02:08:31;;;;;;;6.82;3.20;;;;;;;22.39;62.36;101425.88;5067769;28;20086;-46
2023/09/26 02:10:58;;;;;;;5.68;2.75;;;;;;;22.40;62.21;101424.66;5058033;28;20055;-47
2023/09/26 02:13:26;;;;;;;5.60;2.97;;;;;;;22.40;62.02;101417.06;5074806;28;20055;-44
2023/09/26 02:15:54;;;;;;;7.55;3.20;;;;;;;22.42;61.90;101414.66;5074748;28;20040;-50
2023/09/26 02:18:21;;;;;;;6.47;3.40;;;;;;;22.42;61.69;101420.28;5074974;28;20230;-48
2023/09/26 02:20:49;;;;;;;6.80;3.13;;;;;;;22.44;61.54;101417.13;5074541;28;20043;-45
2023/09/26 02:23:16;;;;;;;7.97;3.25;;;;;;;22.42;61.28;101411.88;5091144;28;20051;-48
2023/09/26 02:25:53;;;;;;;5.63;2.92;;;;;;;22.45;61.11;101404.69;5068969;28;20044;-43
2023/09/26 02:28:20;;;;;;;7.43;3.60;;;;;;;22.47;60.69;101414.38;5087389;28;20052;-46
2023/09/26 02:30:48;;;;;;;9.55;2.95;;;;;;;22.47;60.40;101413.56;5093333;28;20040;-43
2023/09/26 02:33:15;;;;;;;5.28;2.80;;;;;;;22.50;60.29;101415.59;5092934;28;20048;-46
2023/09/26 02:35:42;;;;;;;5.18;2.85;;;;;;;22.50;60.19;101418.41;5074909;28;20055;-45
2023/09/26 02:38:10;;;;;;;5.32;2.70;;;;;;;22.52;59.82;101418.84;5093092;28;20067;-48
2023/09/26 02:40:37;;;;;;;5.35;2.70;;;;;;;22.52;59.60;101411.25;5092853;28;20051;-52
2023/09/26 02:43:05;;;;;;;4.57;2.42;;;;;;;22.52;59.56;101416.03;5092889;28;20067;-44
2023/09/26 02:45:34;;;;;;;5.53;2.85;;;;;;;22.51;59.04;101406.78;5076240;28;20044;-47
2023/09/26 02:48:04;;;;;;;5.63;3.05;;;;;;;22.53;59.27;101398.81;5093105;28;20052;-46
2023/09/26 02:50:32;;;;;;;4.93;2.47;;;;;;;22.53;59.09;101396.00;5092907;28;20062;-47
2023/09/26 02:52:59;;;;;;;5.68;2.83;;;;;;;22.52;58.98;101387.97;5093183;28;20075;-45
2023/09/26 02:55:27;;;;;;;5.85;2.90;;;;;;;22.49;59.16;101386.69;5074976;28;20036;-46
2023/09/26 02:57:55;;;;;;;5.38;2.70;;;;;;;22.45;58.92;101385.88;5092623;28;20051;-50
2023/09/26 03:00:22;;;;;;;4.78;2.72;;;;;;;22.47;59.01;101377.06;5093920;28;20052;-51
2023/09/26 03:02:49;;;;;;;6.57;2.50;;;;;;;22.45;58.83;101380.25;5097193;28;20047;-50
2023/09/26 03:05:17;;;;;;;5.43;2.70;;;;;;;22.43;58.71;101373.38;5079324;28;20406;-50
2023/09/26 03:07:48;;;;;;;5.45;2.47;;;;;;;22.42;58.70;101378.16;5076445;28;20044;-50
2023/09/26 03:10:16;;;;;;;6.25;2.72;;;;;;;22.42;58.58;101378.16;5097097;28;20059;-46
2023/09/26 03:12:44;;;;;;;7.60;2.95;;;;;;;22.39;58.52;101378.16;5097613;28;20043;-47
2023/09/26 03:15:12;;;;;;;5.22;2.60;;;;;;;22.38;58.25;101362.47;5071646;28;20056;-48
2023/09/26 03:17:40;;;;;;;5.15;2.70;;;;;;;22.40;58.70;101365.72;5089239;28;20044;-47
2023/09/26 03:20:08;;;;;;;4.40;2.20;;;;;;;22.39;58.31;101362.09;5088187;28;20272;-49
2023/09/26 03:22:36;;;;;;;8.27;2.50;;;;;;;22.38;58.16;101370.91;5074306;28;20052;-46
2023/09/26 03:25:05;;;;;;;4.30;2.35;;;;;;;22.38;58.26;101373.69;5075119;28;20044;-47
2023/09/26 03:27:32;;;;;;;6.80;2.90;;;;;;;22.37;58.32;101367.28;5096321;28;20060;-50
2023/09/26 03:30:00;;;;;;;5.97;2.63;;;;;;;22.36;58.21;101360.03;5094169;28;20052;-50
2023/09/26 03:32:28;;;;;;;4.85;2.63;;;;;;;22.36;58.34;101371.28;5060757;28;20044;-48
2023/09/26 03:34:55;;;;;;;5.00;2.47;;;;;;;22.34;57.99;101371.66;5077489;28;20058;-50
2023/09/26 03:37:23;;;;;;;5.97;2.53;;;;;;;22.34;58.36;101368.84;5078349;28;20040;-47
2023/09/26 03:39:51;;;;;;;5.20;2.22;;;;;;;22.35;57.95;101364.84;5078014;28;20490;-53
2023/09/26 03:42:18;;;;;;;6.05;2.50;;;;;;;22.32;57.77;101360.00;5076415;28;20059;-51
2023/09/26 03:44:46;;;;;;;6.20;2.17;;;;;;;22.33;57.89;101372.03;5092891;28;20055;-49
2023/09/26 03:47:14;;;;;;;6.43;2.63;;;;;;;22.35;57.85;101369.66;5092985;28;20041;-51
2023/09/26 03:49:41;;;;;;;7.45;2.72;;;;;;;22.37;57.55;101378.50;5095871;28;20574;-51
2023/09/26 03:52:09;;;;;;;6.22;2.50;;;;;;;22.40;57.21;101374.13;5093960;28;20052;-48
2023/09/26 03:54:37;;;;;;;4.68;2.35;;;;;;;22.39;57.16;101370.50;5096428;28;20052;-51
2023/09/26 03:57:04;;;;;;;4.97;2.25;;;;;;;22.40;57.07;101365.72;5095777;28;20043;-50
2023/09/26 03:59:33;;;;;;;5.68;2.50;;;;;;;22.42;56.69;101364.13;5094226;28;20059;-49
2023/09/26 04:02:00;;;;;;;5.43;2.08;;;;;;;22.41;56.69;101356.91;5096319;28;20506;-51
2023/09/26 04:04:29;;;;;;;6.25;2.67;;;;;;;22.41;56.55;101350.47;5096084;28;20048;-51
2023/09/26 04:06:56;;;;;;;6.68;2.15;;;;;;;22.41;56.60;101351.31;5095655;28;20047;-54
2023/09/26 04:09:23;;;;;;;4.85;2.10;;;;;;;22.41;56.45;101348.50;5094975;28;20614;-50
2023/09/26 04:11:50;;;;;;;5.70;2.35;;;;;;;22.41;56.64;101348.50;5095221;28;20052;-50
2023/09/26 04:14:18;;;;;;;4.55;2.38;;;;;;;22.38;56.53;101337.22;5095256;28;20048;-53
2023/09/26 04:16:45;;;;;;;4.53;2.38;;;;;;;22.33;56.78;101332.75;5096197;28;20413;-49
2023/09/26 04:19:12;;;;;;;5.70;2.60;;;;;;;22.30;56.83;101339.91;5078745;28;20051;-52
2023/09/26 04:21:41;;;;;;;6.25;2.47;;;;;;;22.30;56.89;101337.09;5095911;28;20059;-46
2023/09/26 04:24:09;;;;;;;5.55;2.20;;;;;;;22.26;57.18;101335.44;5095311;28;20047;-53
2023/09/26 04:26:36;;;;;;;8.45;2.65;;;;;;;22.27;56.69;101332.25;5091441;28;20044;-51
2023/09/26 04:29:05;;;;;;;4.85;2.60;;;;;;;22.29;56.98;101329.06;5095512;28;20052;-51
2023/09/26 04:31:32;;;;;;;7.43;2.60;;;;;;;22.28;56.76;101330.25;5096126;28;20131;-52
2023/09/26 04:33:59;;;;;;;5.07;2.30;;;;;;;22.27;56.73;101337.03;5072748;28;20056;-50
2023/09/26 04:36:29;;;;;;;7.07;2.60;;;;;;;22.25;56.80;101339.41;5088582;28;20044;-51
2023/09/26 04:38:56;;;;;;;7.50;2.73;;;;;;;22.24;56.62;101340.63;5077953;28;20058;-53
2023/09/26 04:41:23;;;;;;;5.10;2.25;;;;;;;22.25;56.60;101337.44;5095459;28;20178;-49
2023/09/26 04:43:51;;;;;;;5.32;2.25;;;;;;;22.26;56.37;101343.84;5076705;28;20521;-53
2023/09/26 04:46:18;;;;;;;5.93;2.83;;;;;;;22.26;56.44;101335.44;5086812;28;20063;-54
2023/09/26 04:48:46;;;;;;;3.83;2.13;;;;;;;22.23;56.55;101337.00;5091864;28;20052;-49
2023/09/26 04:51:14;;;;;;;5.18;2.50;;;;;;;22.24;56.11;101337.81;5057028;28;20642;-51
2023/09/26 04:53:42;;;;;;;6.00;2.58;;;;;;;22.22;56.46;101332.56;5089794;28;20043;-48
2023/09/26 04:56:09;;;;;;;5.43;2.45;;;;;;;22.22;56.13;101335.38;5076605;28;20737;-51
2023/09/26 04:58:37;;;;;;;4.60;2.42;;;;;;;22.21;56.09;101330.94;5094937;28;20055;-50
2023/09/26 05:01:12;;;;;;;5.47;2.30;;;;;;;22.22;56.21;101328.94;5094257;28;20036;-48
2023/09/26 05:03:41;;;;;;;8.00;2.75;;;;;;;22.25;55.89;101326.19;5095061;28;20047;-50
2023/09/26 05:06:09;;;;;;;6.65;2.47;;;;;;;22.35;55.25;101328.34;5094563;28;20071;-51
2023/09/26 05:08:37;;;;;;;4.60;2.08;;;;;;;22.46;54.73;101324.88;5094652;28;20055;-52
2023/09/26 05:11:04;;;;;;;5.70;2.30;;;;;;;22.50;54.67;101318.16;5076652;28;20048;-51
2023/09/26 05:13:32;;;;;;;5.82;2.55;;;;;;;22.55;54.66;101317.03;5093651;28;20490;-50
2023/09/26 05:15:59;;;;;;;6.32;2.03;;;;;;;22.57;54.21;101312.66;5093974;28;20052;-49
2023/09/26 05:18:27;;;;;;;6.10;2.60;;;;;;;22.58;54.13;101316.28;5093547;28;20048;-50
2023/09/26 05:20:55;;;;;;;15.27;2.60;;;;;;;22.61;53.88;101321.13;5090107;28;20048;-53
2023/09/26 05:23:22;;;;;;;6.35;2.70;;;;;;;22.61;53.84;101319.16;5092982;28;20113;-51
2023/09/26 05:25:49;;;;;;;5.10;2.75;;;;;;;22.62;53.81;101322.75;5076539;28;20048;-50
2023/09/26 05:28:17;;;;;;;6.03;2.35;;;;;;;22.61;53.69;101316.34;5087586;28;20055;-53
2023/09/26 05:30:45;;;;;;;5.15;2.40;;;;;;;22.62;53.53;101314.31;5091815;28;20052;-51
2023/09/26 05:33:13;;;;;;;4.88;2.30;;;;;;;22.58;53.68;101314.28;5088684;28;20048;-53
2023/09/26 05:35:40;;;;;;;5.72;2.03;;;;;;;22.54;54.10;101316.25;5087276;28;20048;-53
2023/09/26 05:38:08;;;;;;;6.60;2.70;;;;;;;22.52;54.18;101317.75;5094039;28;20067;-53
2023/09/26 05:40:35;;;;;;;4.88;2.20;;;;;;;22.50;54.25;101315.34;5091885;28;20588;-50
2023/09/26 05:43:03;;;;;;;8.27;2.65;;;;;;;22.48;54.27;101305.66;5093958;28;20048;-54
2023/09/26 05:45:30;;;;;;;5.50;2.90;;;;;;;22.47;54.44;101312.47;5092719;28;20055;-49
2023/09/26 05:47:57;;;;;;;5.78;2.45;;;;;;;22.46;54.69;101322.06;5094330;28;20047;-51
2023/09/26 05:50:25;;;;;;;6.10;2.53;;;;;;;22.45;54.42;101312.88;5092881;28;20051;-54
2023/09/26 05:52:52;;;;;;;8.35;2.45;;;;;;;22.43;54.44;101317.22;5076005;28;20040;-53
2023/09/26 05:55:19;;;;;;;7.38;2.83;;;;;;;22.43;54.38;101326.47;5093558;28;20048;-53
2023/09/26 05:57:48;;;;;;;5.22;2.28;;;;;;;22.42;54.29;101313.59;5072840;28;20070;-53
2023/09/26 06:00:16;;;;;;;6.55;2.30;;;;;;;22.41;54.41;101309.19;5093435;28;20048;-52
2023/09/26 06:02:44;;;;;;;10.35;2.35;;;;;;;22.41;54.34;101312.00;5092666;28;20059;-54
2023/09/26 06:05:11;;;;;;;8.75;2.50;;;;;;;22.39;54.55;101296.75;5090425;28;20036;-52
2023/09/26 06:07:40;;;;;;;6.50;2.55;;;;;;;22.41;54.27;101306.38;5073454;28;20048;-55
2023/09/26 06:10:12;;;;;;;7.10;2.83;;;;;;;22.42;54.02;101299.56;5076049;28;20044;-51
2023/09/26 06:12:40;;;;;;;5.45;2.45;;;;;;;22.43;54.36;101291.97;5097706;28;20052;-53
2023/09/26 06:15:09;;;;;;;8.85;2.60;;;;;;;22.44;54.19;101308.41;5093325;28;20059;-52
2023/09/26 06:17:36;;;;;;;13.02;2.60;;;;;;;22.44;54.34;101302.03;5092682;28;20583;-55
2023/09/26 06:20:08;;;;;;;6.93;2.90;;;;;;;22.44;54.10;101300.00;5093259;28;20048;-54
2023/09/26 06:22:36;;;;;;;3.75;2.03;;;;;;;22.41;54.11;101305.56;5092369;28;20052;-53
2023/09/26 06:25:04;;;;;;;7.30;2.65;;;;;;;22.48;55.10;101320.53;5093426;28;20364;-54
2023/09/26 06:27:35;;;;;;;9.13;3.38;;;;;;;22.55;56.14;101317.84;5095316;28;20036;-52
2023/09/26 06:30:04;;;;;;;10.90;3.25;;;;;;;22.59;57.68;101309.47;5104743;28;20425;-55
2023/09/26 06:32:34;;;;;;;10.02;3.63;;;;;;;22.95;58.06;101295.50;5092513;28;20078;-52
2023/09/26 06:35:01;;;;;;;8.65;3.53;;;;;;;22.95;57.22;101291.88;5088991;28;20071;-58
2023/09/26 06:37:29;;;;;;;8.55;2.90;;;;;;;22.87;56.32;101299.44;5090430;28;20035;-54
2023/09/26 06:40:00;;;;;;;10.32;3.10;;;;;;;22.79;56.19;101313.75;5093657;28;20048;-53
2023/09/26 06:42:27;;;;;;;9.43;3.50;;;;;;;22.73;56.14;101315.28;5075908;28;20048;-51
2023/09/26 06:44:55;;;;;;;10.90;3.13;;;;;;;22.74;55.99;101316.88;5060624;28;20488;-54
2023/09/26 06:47:22;;;;;;;10.55;3.30;;;;;;;22.72;56.17;101311.66;5065427;28;20044;-51
2023/09/26 06:49:50;;;;;;;8.63;3.47;;;;;;;22.72;56.77;101313.66;5067304;28;20678;-53
2023/09/26 06:52:17;;;;;;;19.17;3.30;;;;;;;22.80;55.79;101312.56;5070543;28;20067;-53
2023/09/26 06:54:45;;;;;;;14.80;3.70;;;;;;;22.87;57.03;101313.47;5072051;28;20535;-53
2023/09/26 06:57:15;;;;;;;7.45;3.70;;;;;;;22.84;56.34;101311.41;5071474;28;20040;-53
2023/09/26 06:59:47;;;;;;;10.63;4.70;;;;;;;22.89;61.51;101313.09;5067981;28;20064;-51
2023/09/26 07:02:15;;;;;;;12.60;3.67;;;;;;;22.88;60.58;101314.25;5065861;28;20094;-52
2023/09/26 07:04:42;;;;;;;16.55;4.57;;;;;;;22.23;58.15;101324.94;5072085;28;20044;-52
2023/09/26 07:07:10;;;;;;;11.57;4.80;;;;;;;22.33;55.60;101327.13;5070173;28;20045;-52
2023/09/26 07:09:39;;;;;;;13.20;4.47;;;;;;;21.63;56.78;101329.53;5066976;28;20059;-52
2023/09/26 07:12:06;;;;;;;11.75;4.28;;;;;;;21.21;62.04;101331.53;5062134;28;20049;-51
2023/09/26 07:14:35;;;;;;;13.82;4.63;;;;;;;21.25;61.25;101329.59;5071331;28;20171;-51
2023/09/26 07:17:03;;;;;;;9.57;4.07;;;;;;;21.07;61.41;101334.84;5067732;28;20045;-52
2023/09/26 07:19:31;;;;;;;11.48;3.80;;;;;;;21.36;61.01;101325.00;5068638;28;20044;-52
2023/09/26 07:21:59;;;;;;;14.10;3.78;;;;;;;21.61;56.42;101317.88;5068993;28;20458;-50
2023/09/26 07:24:26;;;;;;;13.48;3.88;;;;;;;21.61;59.26;101320.69;5068907;28;20433;-51
2023/09/26 07:27:09;;;;;;;9.77;3.90;;;;;;;21.93;57.51;101333.28;5066426;28;20053;-50
2023/09/26 07:29:36;;;;;;;13.02;3.72;;;;;;;22.08;56.53;101340.75;5068865;28;20060;-53
2023/09/26 07:32:04;;;;;;;14.20;4.00;;;;;;;21.67;56.02;101354.84;5070199;28;20052;-50
2023/09/26 07:34:32;;;;;;;11.25;3.70;;;;;;;21.87;56.45;101342.38;5070209;28;20298;-46
2023/09/26 07:36:59;;;;;;;12.80;5.75;;;;;;;21.42;55.75;101339.53;5067775;28;20056;-50
2023/09/26 07:39:27;;;;;;;12.32;4.72;;;;;;;21.41;55.89;101335.91;5071797;28;20076;-50
2023/09/26 07:41:54;;;;;;;11.23;3.33;;;;;;;21.83;56.05;101339.53;5076996;28;20071;-53
2023/09/26 07:44:21;;;;;;;19.00;5.18;;;;;;;21.61;55.35;101342.28;5090320;28;20059;-53
2023/09/26 07:46:49;;;;;;;10.65;3.33;;;;;;;21.75;56.61;101348.16;5071054;28;20048;-49
2023/09/26 07:49:16;;;;;;;10.35;4.35;;;;;;;22.09;55.28;101347.16;5092067;28;20064;-51
2023/09/26 07:51:43;;;;;;;6.95;3.50;;;;;;;22.26;54.46;101333.41;5091548;28;20051;-53
2023/09/26 07:54:11;;;;;;;10.30;3.88;;;;;;;22.41;54.50;101342.06;5091493;28;20051;-53
2023/09/26 07:56:38;;;;;;;19.17;4.25;;;;;;;22.47;54.12;101343.38;5089403;28;20074;-51
2023/09/26 07:59:06;;;;;;;11.30;3.95;;;;;;;22.53;54.02;101344.63;5092190;28;20059;-53
2023/09/26 08:01:33;;;;;;;7.30;3.33;;;;;;;22.54;53.83;101335.91;5094436;28;20067;-51
2023/09/26 08:04:02;;;;;;;13.05;3.65;;;;;;;22.53;54.15;101347.44;5090257;28;20048;-49
2023/09/26 08:06:30;;;;;;;10.95;3.90;;;;;;;22.53;53.91;101350.25;5088559;28;20040;-51
2023/09/26 08:08:57;;;;;;;9.35;3.78;;;;;;;22.60;53.79;101347.59;5090892;28;20406;-50
2023/09/26 08:11:27;;;;;;;13.05;3.38;;;;;;;22.59;53.76;101349.59;5091209;28;20052;-50
2023/09/26 08:13:56;;;;;;;11.65;3.65;;;;;;;22.56;54.00;101339.09;5089890;28;20066;-53
2023/09/26 08:16:23;;;;;;;12.77;3.40;;;;;;;22.58;54.26;101358.41;5091428;28;20044;-53
2023/09/26 08:18:51;;;;;;;9.52;3.40;;;;;;;22.56;54.40;101358.75;5088708;28;20079;-54
2023/09/26 08:21:18;;;;;;;11.65;3.75;;;;;;;22.60;54.45;101356.00;5089544;28;20056;-54
2023/09/26 08:23:46;;;;;;;9.93;3.15;;;;;;;22.61;54.36;101357.66;5090289;28;20040;-51
2023/09/26 08:26:13;;;;;;;7.38;3.25;;;;;;;22.59;54.51;101360.03;5094788;28;20047;-53
2023/09/26 08:28:41;;;;;;;11.25;3.88;;;;;;;22.61;54.99;101366.06;5093193;28;20048;-52
2023/09/26 08:31:11;;;;;;;8.85;3.20;;;;;;;22.58;54.75;101364.03;5093363;28;20055;-53
2023/09/26 08:33:44;;;;;;;11.13;3.40;;;;;;;22.60;54.65;101356.00;5090687;28;20059;-53
2023/09/26 08:36:16;;;;;;;12.57;3.40;;;;;;;22.61;54.88;101344.44;5088175;28;20040;-52
2023/09/26 08:38:44;;;;;;;7.38;3.20;;;;;;;22.64;54.63;101343.66;5088538;28;20047;-52
2023/09/26 08:41:12;;;;;;;6.07;2.92;;;;;;;22.64;54.65;101340.84;5092646;28;20118;-52
2023/09/26 08:43:40;;;;;;;12.70;3.17;;;;;;;22.62;54.72;101332.00;5089454;28;20491;-53
2023/09/26 08:46:07;;;;;;;8.50;3.00;;;;;;;22.62;54.90;101343.22;5088607;28;20073;-54
2023/09/26 08:48:35;;;;;;;13.75;3.60;;;;;;;22.60;54.77;101328.75;5075071;28;20052;-51
2023/09/26 08:51:03;;;;;;;6.70;2.90;;;;;;;22.60;55.19;101337.16;5073064;28;20063;-52
2023/09/26 08:53:30;;;;;;;11.93;3.25;;;;;;;22.64;55.23;101345.66;5073973;28;20059;-53
2023/09/26 08:55:58;;;;;;;6.20;2.85;;;;;;;22.60;55.07;101339.97;5075577;28;20048;-53
2023/09/26 08:58:26;;;;;;;9.15;3.22;;;;;;;22.63;54.99;101339.22;5090051;28;20043;-53
2023/09/26 09:00:54;;;;;;;10.93;3.67;;;;;;;22.47;55.24;101326.53;5092142;28;20040;-55
2023/09/26 09:03:21;;;;;;;13.35;3.88;;;;;;;22.43;55.75;101336.88;5089503;28;20064;-52
2023/09/26 09:05:49;;;;;;;6.32;2.92;;;;;;;22.48;55.31;101330.94;5057475;28;20051;-55
2023/09/26 09:08:19;;;;;;;11.90;3.58;;;;;;;22.62;54.67;101333.97;5087063;28;20040;-49
2023/09/26 09:10:52;;;;;;;;;;;;;;;22.63;54.79;101333.59;5091499;28;20510;-51
2023/09/26 09:13:28;;;;;;;13.45;3.47;;;;;;;22.68;54.86;101333.28;5093527;28;19945;-52
2023/09/26 09:16:16;;;;;;;6.93;2.83;;;;;;;22.67;55.10;101328.03;5091627;28;20048;-51
2023/09/26 09:18:50;;;;;;;8.20;3.05;;;;;;;22.71;55.10;101320.47;5071824;28;20048;-52
2023/09/26 09:21:33;;;;;;;15.13;3.85;;;;;;;22.72;55.09;101322.91;5072485;28;20058;-60
2023/09/26 09:24:07;;;;;;;10.05;4.10;;;;;;;22.74;55.34;101330.94;5092639;28;21572;-53
2023/09/26 09:26:36;;;;;;;14.15;3.35;;;;;;;22.79;55.33;101328.59;5090832;28;20052;-54
2023/09/26 09:29:20;;;;;;;9.00;3.40;;;;;;;22.75;55.79;101321.34;5088819;28;20041;-54
2023/09/26 09:31:48;;;;;;;11.23;3.25;;;;;;;22.71;55.29;101317.66;5081474;28;20049;-55
2023/09/26 09:34:15;;;;;;;9.75;3.25;;;;;;;22.70;55.48;101336.50;5068232;28;20052;-52
2023/09/26 09:36:44;;;;;;;9.27;3.35;;;;;;;22.69;55.21;101337.72;5068729;28;20059;-54
2023/09/26 09:39:12;;;;;;;11.13;3.83;;;;;;;22.70;54.89;101333.69;5088239;28;20044;-56
2023/09/26 09:41:40;;;;;;;10.48;3.35;;;;;;;22.68;54.98;101324.88;5084985;28;20406;-53
2023/09/26 09:44:08;;;;;;;7.80;2.90;;;;;;;22.68;54.63;101327.69;5082598;28;20055;-56
2023/09/26 09:46:38;;;;;;;10.30;3.35;;;;;;;22.65;54.75;101333.25;5086176;28;20572;-54
2023/09/26 09:49:12;;;;;;;6.97;3.30;;;;;;;22.66;54.45;101329.22;5089359;28;20036;-55
2023/09/26 09:51:42;;;;;;;12.10;3.72;;;;;;;22.67;54.52;101319.59;5086741;28;20047;-57
2023/09/26 09:54:17;;;;;;;12.13;3.45;;;;;;;22.66;54.55;101310.38;5055924;28;20048;-57
2023/09/26 09:56:49;;;;;;;8.65;3.60;;;;;;;22.65;54.43;101316.38;5066409;28;20040;-54
2023/09/26 09:59:17;;;;;;;11.00;3.38;;;;;;;22.62;54.38;101312.34;5083424;28;20055;-52
2023/09/26 10:01:49;;;;;;;10.30;3.83;;;;;;;22.55;54.80;101325.44;5084934;28;20284;-54
2023/09/26 10:04:18;;;;;;;8.43;3.30;;;;;;;22.59;54.94;101327.13;5086417;28;20051;-53
2023/09/26 10:06:47;;;;;;;11.18;3.40;;;;;;;22.65;54.88;101336.84;5068210;28;20411;-55
2023/09/26 10:09:20;;;;;;;9.00;3.50;;;;;;;22.72;54.55;101338.94;5077442;28;20032;-54
2023/09/26 10:11:49;;;;;;;8.32;3.45;;;;;;;22.71;54.59;101337.31;5088533;28;20145;-55
2023/09/26 10:14:24;;;;;;;11.43;3.35;;;;;;;22.75;54.48;101338.97;5068710;28;20048;-56
2023/09/26 10:16:54;;;;;;;12.75;3.72;;;;;;;22.73;54.54;101332.13;5077311;28;20063;-54
2023/09/26 10:19:23;;;;;;;11.23;3.50;;;;;;;22.72;54.40;101328.50;5070897;28;20059;-58
2023/09/26 10:22:32;;;;;;;6.43;3.50;;;;;;;22.76;54.35;101317.31;5072894;28;20056;-61
2023/09/26 10:25:01;;;;;;;11.60;3.60;;;;;;;22.80;53.97;101312.56;5076942;28;20094;-58
2023/09/26 10:27:31;;;;;;;8.77;3.33;;;;;;;22.80;54.24;101301.34;5085241;28;20044;-61
2023/09/26 10:30:14;;;;;;;12.30;3.65;;;;;;;22.86;54.00;101309.03;5084926;28;20051;-55
2023/09/26 10:32:43;;;;;;;12.65;3.45;;;;;;;22.87;54.19;101316.28;5086747;28;20052;-57
2023/09/26 10:35:13;;;;;;;11.40;3.40;;;;;;;22.93;54.06;101316.75;5083590;28;20043;-54
2023/09/26 10:38:12;;;;;;;19.33;7.57;;;;;;;23.01;54.43;101305.19;5083990;28;20044;-56
2023/09/26 10:40:39;;;;;;;14.88;4.80;;;;;;;23.04;55.28;101293.22;5048396;28;20040;-54
2023/09/26 10:43:07;;;;;;;13.75;4.57;;;;;;;23.12;58.48;101300.53;5090192;28;20048;-54
2023/09/26 10:45:55;;;;;;;8.88;3.85;;;;;;;23.06;56.33;101295.63;5074688;28;20048;-54
2023/09/26 10:48:23;;;;;;;9.77;3.70;;;;;;;23.06;56.77;101304.88;5083444;28;20082;-51
2023/09/26 10:50:51;;;;;;;10.57;3.83;;;;;;;23.08;56.67;101304.50;5063295;28;20714;-53
2023/09/26 10:53:19;;;;;;;17.85;4.20;;;;;;;23.10;55.10;101302.91;5082299;28;20048;-56
2023/09/26 10:55:46;;;;;;;11.60;5.25;;;;;;;23.00;55.88;101302.78;5078007;28;20051;-55
2023/09/26 10:58:20;;;;;;;13.90;4.28;;;;;;;22.95;55.82;101292.69;5082680;28;20055;-54
2023/09/26 11:01:11;;;;;;;8.02;3.33;;;;;;;22.98;55.77;101288.31;5088876;28;20043;-51
2023/09/26 11:03:38;;;;;;;10.90;3.72;;;;;;;23.01;55.66;101291.16;5087375;28;20274;-57
2023/09/26 11:06:08;;;;;;;19.23;4.03;;;;;;;23.02;55.64;101281.53;5090597;28;20544;-52
2023/09/26 11:08:56;;;;;;;12.60;4.25;;;;;;;23.22;54.74;101279.38;5087054;28;20059;-52
2023/09/26 11:11:24;;;;;;;10.68;3.65;;;;;;;23.16;54.82;101264.03;5091773;28;20055;-54
2023/09/26 11:13:52;;;;;;;6.70;3.90;;;;;;;23.22;54.76;101271.72;5088871;28;20071;-56
2023/09/26 11:16:19;;;;;;;7.60;3.70;;;;;;;23.34;54.14;101270.69;5087291;28;20054;-53
2023/09/26 11:18:54;;;;;;;9.85;4.10;;;;;;;23.27;54.32;101277.00;5088997;28;20056;-54
2023/09/26 11:21:22;;;;;;;9.32;3.42;;;;;;;23.20;54.53;101284.56;5091779;28;20055;-54
2023/09/26 11:23:56;;;;;;;9.57;3.53;;;;;;;23.19;54.42;101285.72;5093029;28;20047;-52
2023/09/26 11:26:24;;;;;;;9.38;3.85;;;;;;;23.31;54.40;101296.72;5093664;28;20122;-54
2023/09/26 11:28:52;;;;;;;11.90;3.95;;;;;;;23.43;53.96;101283.22;5074003;28;20048;-55
2023/09/26 11:31:20;;;;;;;7.55;3.30;;;;;;;23.45;53.26;101279.22;5091239;28;20076;-53